createdAt,value
2023-05-10T00:00:00.618Z,11.20
2023-05-10T00:02:27.329Z,11.16
2023-05-10T00:04:53.788Z,11.10
2023-05-10T00:07:20.485Z,11.08
2023-05-10T00:09:46.858Z,11.04
2023-05-10T00:12:13.233Z,10.99
2023-05-10T00:14:39.840Z,10.94
2023-05-10T00:17:06.207Z,10.92
2023-05-10T00:19:32.838Z,10.89
2023-05-10T00:21:59.214Z,10.87
2023-05-10T00:24:25.601Z,10.83
2023-05-10T00:26:51.964Z,10.81
2023-05-10T00:29:18.888Z,10.78
2023-05-10T00:31:45.617Z,10.76
2023-05-10T00:34:12.046Z,10.74
2023-05-10T00:36:38.593Z,10.71
2023-05-10T00:39:06.487Z,10.69
2023-05-10T00:41:33.113Z,10.67
2023-05-10T00:43:59.904Z,10.67
2023-05-10T00:46:26.488Z,10.66
2023-05-10T00:48:53.060Z,10.65
2023-05-10T00:51:19.527Z,10.63
2023-05-10T00:53:46.578Z,10.60
2023-05-10T00:56:13.429Z,10.58
2023-05-10T00:58:40.376Z,10.56
2023-05-10T01:01:07.290Z,10.55
2023-05-10T01:03:33.719Z,10.53
2023-05-10T01:06:00.112Z,10.52
2023-05-10T01:08:26.864Z,10.50
2023-05-10T01:10:53.451Z,10.47
2023-05-10T01:13:27.194Z,10.44
2023-05-10T01:15:53.703Z,10.41
2023-05-10T01:18:20.985Z,10.40
2023-05-10T01:20:49.702Z,10.38
2023-05-10T01:23:34.416Z,10.35
2023-05-10T01:26:19.157Z,10.32
2023-05-10T01:29:04.614Z,10.30
2023-05-10T01:31:51.647Z,10.27
2023-05-10T01:34:26.303Z,10.24
2023-05-10T01:36:59.258Z,10.21
2023-05-10T01:39:36.819Z,10.17
2023-05-10T01:42:10.168Z,10.11
2023-05-10T01:44:40.707Z,10.06
2023-05-10T01:47:11.301Z,10.00
2023-05-10T01:49:50.670Z,9.96
2023-05-10T01:52:22.602Z,9.92
2023-05-10T01:55:09.802Z,9.90
2023-05-10T01:57:37.514Z,9.89
2023-05-10T02:00:05.022Z,9.86
2023-05-10T02:02:46.532Z,9.84
2023-05-10T02:05:16.898Z,9.81
2023-05-10T02:07:44.154Z,9.80
2023-05-10T02:10:12.156Z,9.80
2023-05-10T02:12:43.084Z,9.81
2023-05-10T02:15:11.215Z,9.80
2023-05-10T02:17:38.167Z,9.81
2023-05-10T02:20:09.280Z,9.79
2023-05-10T02:22:37.340Z,9.79
2023-05-10T02:25:04.247Z,9.78
2023-05-10T02:27:30.939Z,9.77
2023-05-10T02:29:58.332Z,9.76
2023-05-10T02:36:45.084Z,9.76
2023-05-10T02:39:13.850Z,9.74
2023-05-10T02:41:41.978Z,9.72
2023-05-10T02:44:09.986Z,9.73
2023-05-10T02:46:38.069Z,9.72
2023-05-10T02:49:04.945Z,9.72
2023-05-10T02:51:34.108Z,9.71
2023-05-10T02:54:21.139Z,9.69
2023-05-10T02:56:51.355Z,9.67
2023-05-10T02:59:17.798Z,9.65
2023-05-10T03:01:44.277Z,9.61
2023-05-10T03:04:10.667Z,9.58
2023-05-10T03:06:37.521Z,9.55
2023-05-10T03:09:04.500Z,9.52
2023-05-10T03:11:30.811Z,9.49
2023-05-10T03:14:05.690Z,9.48
2023-05-10T03:16:53.223Z,9.47
2023-05-10T03:19:26.250Z,9.44
2023-05-10T03:21:54.184Z,9.41
2023-05-10T03:24:22.694Z,9.41
2023-05-10T03:26:50.784Z,9.42
2023-05-10T03:29:18.475Z,9.43
2023-05-10T03:31:44.957Z,9.43
2023-05-10T03:34:11.638Z,9.43
2023-05-10T03:36:37.998Z,9.42
2023-05-10T03:39:04.561Z,9.42
2023-05-10T03:41:31.162Z,9.42
2023-05-10T03:43:57.514Z,9.42
2023-05-10T03:46:23.876Z,9.42
2023-05-10T03:48:50.609Z,9.42
2023-05-10T03:51:16.937Z,9.43
2023-05-10T03:53:43.454Z,9.46
2023-05-10T03:56:09.890Z,9.48
2023-05-10T03:58:36.924Z,9.52
2023-05-10T04:01:03.628Z,9.55
2023-05-10T04:03:30.283Z,9.56
2023-05-10T04:06:01.730Z,9.57
2023-05-10T04:08:29.312Z,9.60
2023-05-10T04:11:07.853Z,9.61
2023-05-10T04:13:34.807Z,9.63
2023-05-10T04:16:01.626Z,9.67
2023-05-10T04:18:28.042Z,9.70
2023-05-10T04:20:54.423Z,9.74
2023-05-10T04:23:20.844Z,9.78
2023-05-10T04:25:47.199Z,9.82
2023-05-10T04:28:13.581Z,9.89
2023-05-10T04:30:40.730Z,9.92
2023-05-10T04:33:07.400Z,9.97
2023-05-10T04:35:34.528Z,10.02
2023-05-10T04:38:00.837Z,10.10
2023-05-10T04:40:27.408Z,10.19
2023-05-10T04:42:53.816Z,10.26
2023-05-10T04:45:20.168Z,10.34
2023-05-10T04:47:46.505Z,10.41
2023-05-10T04:50:13.008Z,10.46
2023-05-10T04:52:39.408Z,10.53
2023-05-10T04:55:08.251Z,10.62
2023-05-10T04:57:34.811Z,10.71
2023-05-10T05:00:02.035Z,10.79
2023-05-10T05:02:28.427Z,10.86
2023-05-10T05:04:57.979Z,10.91
2023-05-10T05:07:24.299Z,10.95
2023-05-10T05:09:50.756Z,11.00
2023-05-10T05:12:17.227Z,11.08
2023-05-10T05:14:43.725Z,11.18
2023-05-10T05:17:10.251Z,11.26
2023-05-10T05:19:37.198Z,11.34
2023-05-10T05:22:03.637Z,11.41
2023-05-10T05:24:30.090Z,11.50
2023-05-10T05:26:56.515Z,11.58
2023-05-10T05:29:22.888Z,11.64
2023-05-10T05:31:49.279Z,11.70
2023-05-10T05:34:15.757Z,11.78
2023-05-10T05:36:42.324Z,11.87
2023-05-10T05:39:08.634Z,11.94
2023-05-10T05:41:35.229Z,12.04
2023-05-10T05:44:01.574Z,12.15
2023-05-10T05:46:28.081Z,12.27
2023-05-10T05:48:54.473Z,12.39
2023-05-10T05:51:20.797Z,12.50
2023-05-10T05:53:47.222Z,12.62
2023-05-10T05:56:13.642Z,12.73
2023-05-10T05:58:40.084Z,12.83
2023-05-10T06:01:06.889Z,12.95
2023-05-10T06:03:33.558Z,13.09
2023-05-10T06:06:00.066Z,13.21
2023-05-10T06:08:26.470Z,13.34
2023-05-10T06:10:52.973Z,13.47
2023-05-10T06:13:19.330Z,13.60
2023-05-10T06:15:45.787Z,13.71
2023-05-10T06:18:12.333Z,13.82
2023-05-10T06:20:38.743Z,13.94
2023-05-10T06:23:05.241Z,14.06
2023-05-10T06:25:31.664Z,14.19
2023-05-10T06:27:58.599Z,14.30
2023-05-10T06:30:28.661Z,14.40
2023-05-10T06:32:55.715Z,14.49
2023-05-10T06:35:22.570Z,14.58
2023-05-10T06:37:49.856Z,14.68
2023-05-10T06:40:16.531Z,14.78
2023-05-10T06:42:42.937Z,14.89
2023-05-10T06:45:10.205Z,15.00
2023-05-10T06:47:38.776Z,15.09
2023-05-10T06:50:06.846Z,15.21
2023-05-10T06:52:33.185Z,15.34
2023-05-10T06:55:00.560Z,15.47
2023-05-10T06:57:31.695Z,15.62
2023-05-10T06:59:59.297Z,15.77
2023-05-10T07:02:25.843Z,15.88
2023-05-10T07:04:52.848Z,15.99
2023-05-10T07:07:20.072Z,16.15
2023-05-10T07:09:46.528Z,16.30
2023-05-10T07:12:14.997Z,16.42
2023-05-10T07:14:42.854Z,16.48
2023-05-10T07:17:10.307Z,16.54
2023-05-10T07:19:36.783Z,16.64
2023-05-10T07:22:03.381Z,16.75
2023-05-10T07:24:30.325Z,16.83
2023-05-10T07:26:56.635Z,16.96
2023-05-10T07:29:23.056Z,17.09
2023-05-10T07:31:49.383Z,17.25
2023-05-10T07:34:16.170Z,17.45
2023-05-10T07:36:42.568Z,17.56
2023-05-10T07:39:09.039Z,17.69
2023-05-10T07:41:36.055Z,17.81
2023-05-10T07:44:02.733Z,17.89
2023-05-10T07:46:29.188Z,17.99
2023-05-10T07:48:56.129Z,18.15
2023-05-10T07:51:22.876Z,18.31
2023-05-10T07:53:49.413Z,18.39
2023-05-10T07:56:23.445Z,18.42
2023-05-10T07:58:50.185Z,18.49
2023-05-10T13:02:39.049Z,24.22
2023-05-10T13:05:07.532Z,24.27
2023-05-10T13:07:35.266Z,24.23
2023-05-10T13:10:03.041Z,24.15
2023-05-10T13:12:30.838Z,24.03
2023-05-10T13:14:58.628Z,23.92
2023-05-10T13:17:27.021Z,24.01
2023-05-10T13:19:54.834Z,24.32
2023-05-10T13:22:32.389Z,24.51
2023-05-10T13:25:04.488Z,24.70
2023-05-10T13:27:32.212Z,24.81
2023-05-10T13:30:00.527Z,24.81
2023-05-10T13:32:28.317Z,24.80
2023-05-10T13:34:56.620Z,24.79
2023-05-10T13:37:24.377Z,24.73
2023-05-10T13:39:52.624Z,24.60
2023-05-10T13:42:20.810Z,24.43
2023-05-10T13:44:48.530Z,24.22
2023-05-10T13:47:16.754Z,24.03
2023-05-10T13:49:44.552Z,23.93
2023-05-10T13:52:13.000Z,23.92
2023-05-10T13:54:40.957Z,23.88
2023-05-10T13:57:08.734Z,23.87
2023-05-10T13:59:36.547Z,23.88
2023-05-10T14:02:04.702Z,23.90
2023-05-10T14:04:32.950Z,23.95
2023-05-10T14:07:01.524Z,24.00
2023-05-10T14:09:29.391Z,24.08
2023-05-10T14:11:57.244Z,24.09
2023-05-10T14:14:25.324Z,24.06
2023-05-10T14:16:53.135Z,24.09
2023-05-10T14:19:20.902Z,24.19
2023-05-10T14:21:48.647Z,24.37
2023-05-10T14:24:16.504Z,24.46
2023-05-10T14:26:44.267Z,24.45
2023-05-10T14:29:12.730Z,24.41
2023-05-10T14:31:41.526Z,24.39
2023-05-10T14:34:09.316Z,24.48
2023-05-10T14:36:37.087Z,24.83
2023-05-10T14:39:05.042Z,25.52
2023-05-10T14:41:33.197Z,25.98
2023-05-10T14:44:00.902Z,26.03
2023-05-10T14:46:29.004Z,25.88
2023-05-10T14:48:57.051Z,25.89
2023-05-10T14:51:24.701Z,26.17
2023-05-10T14:53:52.539Z,26.24
2023-05-10T14:56:22.506Z,26.01
2023-05-10T14:58:51.075Z,25.73
2023-05-10T15:01:20.083Z,25.58
2023-05-10T15:03:48.306Z,25.47
2023-05-10T15:06:19.220Z,25.55
2023-05-10T15:08:47.098Z,25.98
2023-05-10T15:11:14.811Z,26.42
2023-05-10T15:13:42.630Z,26.79
2023-05-10T15:16:10.447Z,27.24
2023-05-10T15:18:38.340Z,27.46
2023-05-10T15:21:06.076Z,27.97
2023-05-10T15:23:33.937Z,28.69
2023-05-10T15:26:02.019Z,29.40
2023-05-10T15:28:31.111Z,29.68
2023-05-10T15:31:01.322Z,29.66
2023-05-10T15:33:29.729Z,29.73
2023-05-10T15:35:57.558Z,30.60
2023-05-10T15:38:25.340Z,31.25
2023-05-10T15:40:57.590Z,31.85
2023-05-10T15:43:25.539Z,32.80
2023-05-10T15:45:53.407Z,33.51
2023-05-10T15:48:21.142Z,34.13
2023-05-10T15:50:48.896Z,34.74
2023-05-10T15:53:16.595Z,35.08
2023-05-10T15:55:44.315Z,35.10
2023-05-10T15:58:12.121Z,35.28
2023-05-10T16:00:39.906Z,36.02
2023-05-10T16:03:08.359Z,36.72
2023-05-10T16:05:36.251Z,37.22
2023-05-10T16:08:04.032Z,36.90
2023-05-10T16:10:33.375Z,36.82
2023-05-10T16:13:02.500Z,36.75
2023-05-10T16:15:30.246Z,36.61
2023-05-10T16:17:58.487Z,36.76
2023-05-10T16:20:27.017Z,37.21
2023-05-10T16:22:54.829Z,37.70
2023-05-10T16:25:22.615Z,37.30
2023-05-10T16:27:51.175Z,36.15
2023-05-10T16:30:20.079Z,34.83
2023-05-10T16:32:48.741Z,33.65
2023-05-10T16:35:17.093Z,32.53
2023-05-10T16:37:45.121Z,31.47
2023-05-10T16:40:13.236Z,31.12
2023-05-10T16:42:41.445Z,30.71
2023-05-10T16:45:09.807Z,29.91
2023-05-10T16:47:39.646Z,29.07
2023-05-10T16:50:08.393Z,28.31
2023-05-10T16:52:37.191Z,27.69
2023-05-10T16:55:05.580Z,27.23
2023-05-10T16:57:33.484Z,26.83
2023-05-10T17:00:01.541Z,26.55
2023-05-10T17:02:29.878Z,26.92
2023-05-10T17:04:57.924Z,27.66
2023-05-10T17:07:26.485Z,27.67
2023-05-10T17:09:54.311Z,27.60
2023-05-10T17:12:22.241Z,27.92
2023-05-10T17:14:50.355Z,28.26
2023-05-10T17:17:18.433Z,27.79
2023-05-10T17:19:46.732Z,27.10
2023-05-10T17:22:15.421Z,26.47
2023-05-10T17:24:43.798Z,25.99
2023-05-10T17:27:11.979Z,25.91
2023-05-10T17:29:40.768Z,25.70
2023-05-10T17:32:11.738Z,25.27
2023-05-10T17:34:40.135Z,24.80
2023-05-10T17:37:09.432Z,24.40
2023-05-10T17:39:39.329Z,24.01
2023-05-10T17:42:08.415Z,23.72
2023-05-10T17:44:36.504Z,23.46
2023-05-10T17:47:04.625Z,23.17
2023-05-10T17:49:32.639Z,22.88
2023-05-10T17:52:01.021Z,22.61
2023-05-10T17:54:29.557Z,22.34
2023-05-10T17:56:58.197Z,22.09
2023-05-10T17:59:26.779Z,21.87
2023-05-10T18:01:54.874Z,21.67
2023-05-10T18:04:23.066Z,21.47
2023-05-10T18:06:51.464Z,21.28
2023-05-10T18:09:21.151Z,21.11
2023-05-10T18:11:48.977Z,20.97
2023-05-10T18:14:28.287Z,20.82
2023-05-10T18:17:04.315Z,20.67
2023-05-10T18:19:32.352Z,20.55
2023-05-10T18:22:00.228Z,20.45
2023-05-10T18:24:38.499Z,20.35
2023-05-10T18:27:10.882Z,20.26
2023-05-10T18:29:39.429Z,20.18
2023-05-10T18:32:07.531Z,20.09
2023-05-10T18:34:35.419Z,20.03
2023-05-10T18:37:07.934Z,19.96
2023-05-10T18:39:39.474Z,19.88
2023-05-10T18:42:07.774Z,19.80
2023-05-10T18:44:35.905Z,19.73
2023-05-10T18:47:04.205Z,19.67
2023-05-10T18:49:32.544Z,19.62
2023-05-10T18:52:00.849Z,19.57
2023-05-10T18:54:29.934Z,19.52
2023-05-10T18:56:58.844Z,19.47
2023-05-10T18:59:28.170Z,19.43
2023-05-10T19:01:57.526Z,19.39
2023-05-10T19:04:26.292Z,19.35
2023-05-10T19:06:55.909Z,19.31
2023-05-10T19:09:24.264Z,19.28
2023-05-10T19:11:52.324Z,19.24
2023-05-10T19:14:20.913Z,19.19
2023-05-10T19:16:48.778Z,19.14
2023-05-10T19:19:19.423Z,19.09
2023-05-10T19:21:47.712Z,19.04
2023-05-10T19:24:15.779Z,18.97
2023-05-10T19:26:43.871Z,18.91
2023-05-10T19:29:11.956Z,18.83
2023-05-10T19:31:40.146Z,18.78
2023-05-10T19:34:07.984Z,18.71
2023-05-10T19:36:36.078Z,18.65
2023-05-10T19:39:03.852Z,18.58
2023-05-10T19:41:31.581Z,18.51
2023-05-10T19:43:59.932Z,18.46
2023-05-10T19:46:27.757Z,18.40
2023-05-10T19:48:55.519Z,18.34
2023-05-10T19:51:23.294Z,18.27
2023-05-10T19:53:50.992Z,18.21
2023-05-10T19:56:18.888Z,18.15
2023-05-10T19:58:46.740Z,18.09
2023-05-10T20:01:14.726Z,18.03
2023-05-10T20:03:42.567Z,17.97
2023-05-10T20:06:10.959Z,17.90
2023-05-10T20:08:38.685Z,17.84
2023-05-10T20:11:06.500Z,17.77
2023-05-10T20:13:34.257Z,17.68
2023-05-10T20:16:02.513Z,17.61
2023-05-10T20:18:30.409Z,17.54
2023-05-10T20:21:00.005Z,17.43
2023-05-10T20:23:27.871Z,17.30
2023-05-10T20:25:55.718Z,17.20
2023-05-10T20:28:25.404Z,17.12
2023-05-10T20:30:54.890Z,17.06
2023-05-10T20:33:22.962Z,17.02
2023-05-10T20:35:51.490Z,17.00
2023-05-10T20:38:19.361Z,16.99
2023-05-10T20:40:47.300Z,16.98
2023-05-10T20:43:15.106Z,16.94
2023-05-10T20:45:42.813Z,16.93
2023-05-10T20:48:10.582Z,16.90
2023-05-10T20:50:38.315Z,16.89
2023-05-10T20:53:06.125Z,16.85
2023-05-10T20:55:33.898Z,16.81
2023-05-10T20:58:04.120Z,16.76
2023-05-10T21:00:32.683Z,16.71
2023-05-10T21:03:00.530Z,16.66
2023-05-10T21:05:28.447Z,16.63
2023-05-10T21:07:56.214Z,16.58
2023-05-10T21:10:25.555Z,16.51
2023-05-10T21:12:53.251Z,16.43
2023-05-10T21:15:22.653Z,16.38
2023-05-10T21:17:50.706Z,16.31
2023-05-10T21:20:18.756Z,16.25
2023-05-10T21:22:46.776Z,16.20
2023-05-10T21:25:14.664Z,16.15
2023-05-10T21:27:42.461Z,16.11
2023-05-10T21:30:10.750Z,16.07
2023-05-10T21:32:38.741Z,16.03
2023-05-10T21:35:07.157Z,15.97
2023-05-10T21:37:34.862Z,15.92
2023-05-10T21:40:03.206Z,15.89
2023-05-10T21:42:31.806Z,15.86
2023-05-10T21:44:59.479Z,15.82
2023-05-10T21:47:27.534Z,15.78
2023-05-10T21:49:55.400Z,15.74
2023-05-10T21:52:23.115Z,15.69
2023-05-10T21:54:50.872Z,15.66
2023-05-10T21:57:18.822Z,15.62
2023-05-10T21:59:46.589Z,15.59
2023-05-10T22:02:14.453Z,15.58
2023-05-10T22:04:42.284Z,15.56
2023-05-10T22:07:10.087Z,15.56
2023-05-10T22:09:37.773Z,15.55
2023-05-10T22:12:05.796Z,15.53
2023-05-10T22:14:33.532Z,15.52
2023-05-10T22:17:01.322Z,15.51
2023-05-10T22:19:29.162Z,15.50
2023-05-10T22:21:56.862Z,15.49
2023-05-10T22:24:24.592Z,15.48
2023-05-10T22:26:55.023Z,15.48
2023-05-10T22:29:23.509Z,15.46
2023-05-10T22:31:51.219Z,15.44
2023-05-10T22:34:18.923Z,15.43
2023-05-10T22:36:46.740Z,15.42
2023-05-10T22:39:14.506Z,15.41
2023-05-10T22:41:42.666Z,15.41
2023-05-10T22:44:10.484Z,15.40
2023-05-10T22:46:38.576Z,15.38
2023-05-10T22:49:06.919Z,15.36
2023-05-10T22:51:34.665Z,15.35
2023-05-10T22:54:02.495Z,15.32
2023-05-10T22:56:31.014Z,15.31
2023-05-10T22:58:58.854Z,15.29
2023-05-10T23:01:26.603Z,15.29
2023-05-10T23:03:54.468Z,15.29
2023-05-10T23:06:22.340Z,15.28
2023-05-10T23:08:50.097Z,15.28
2023-05-10T23:11:17.891Z,15.26
2023-05-10T23:13:45.645Z,15.26
2023-05-10T23:16:13.862Z,15.25
2023-05-10T23:18:41.815Z,15.24
2023-05-10T23:21:09.811Z,15.25
2023-05-10T23:23:37.705Z,15.25
2023-05-10T23:26:05.612Z,15.24
2023-05-10T23:28:33.327Z,15.23
2023-05-10T23:31:01.216Z,15.21
2023-05-10T23:33:29.447Z,15.18
2023-05-10T23:35:57.222Z,15.16
2023-05-10T23:38:24.971Z,15.13
2023-05-10T23:40:52.741Z,15.11
2023-05-10T23:43:21.806Z,15.10
2023-05-10T23:45:56.708Z,15.09
2023-05-10T23:48:24.677Z,15.06
2023-05-10T23:50:52.390Z,15.06
2023-05-10T23:53:20.094Z,15.04
2023-05-10T23:55:47.820Z,15.03
2023-05-10T23:58:15.657Z,15.02
